Time;durP1;ratioP1;P1;durP2;ratioP2;P2;SDS_P1;SDS_P2;PMS_P1;PMS_P2;Temp;Humidity;BMP_temperature;BMP_pressure;BME280_temperature;BME280_humidity;BME280_pressure;Samples;Min_cycle;Max_cycle;Signal;HPM_P1;HPM_P2
2022/01/07 00:01:01;;;;;;;16.80;8.48;;;2.80;99.90;;;;;;5157554;27;20464;-64
2022/01/07 00:03:27;;;;;;;17.42;7.78;;;2.80;99.90;;;;;;5158113;27;20126;-65
2022/01/07 00:05:53;;;;;;;19.90;9.15;;;2.80;99.90;;;;;;5156900;27;20046;-65
2022/01/07 00:08:19;;;;;;;14.02;7.03;;;2.80;99.90;;;;;;5156718;27;20038;-67
2022/01/07 00:10:45;;;;;;;22.98;7.53;;;2.70;99.90;;;;;;5155739;27;20034;-64
2022/01/07 00:13:11;;;;;;;18.27;8.63;;;2.70;99.90;;;;;;5158177;27;20031;-64
2022/01/07 00:15:37;;;;;;;18.95;7.38;;;2.50;99.90;;;;;;5158414;27;20031;-65
2022/01/07 00:18:03;;;;;;;13.98;7.00;;;2.50;99.90;;;;;;5156610;27;20041;-64
2022/01/07 00:20:29;;;;;;;17.27;8.00;;;2.70;99.90;;;;;;5156679;27;20046;-63
2022/01/07 00:22:55;;;;;;;14.30;7.22;;;2.70;99.90;;;;;;5156764;27;20031;-64
2022/01/07 00:25:22;;;;;;;23.88;8.02;;;2.70;99.90;;;;;;5155870;27;20557;-64
2022/01/07 00:27:49;;;;;;;13.65;7.35;;;2.80;99.90;;;;;;5156791;27;20030;-64
2022/01/07 00:30:16;;;;;;;16.63;7.70;;;2.80;99.90;;;;;;5156232;27;20033;-64
2022/01/07 00:32:41;;;;;;;19.63;7.88;;;2.80;99.90;;;;;;5157237;27;20027;-64
2022/01/07 00:35:08;;;;;;;15.57;7.95;;;2.80;99.90;;;;;;5157402;27;20079;-64
2022/01/07 00:37:34;;;;;;;15.30;7.95;;;2.70;99.90;;;;;;5157227;27;20475;-64
2022/01/07 00:40:00;;;;;;;15.65;6.88;;;2.60;99.90;;;;;;5156004;27;20033;-65
2022/01/07 00:42:26;;;;;;;20.48;7.15;;;2.60;99.90;;;;;;5157502;27;20105;-65
2022/01/07 00:44:54;;;;;;;20.42;8.15;;;2.60;99.90;;;;;;5155242;27;20408;-64
2022/01/07 00:47:20;;;;;;;12.73;7.47;;;2.70;99.90;;;;;;5157141;27;20101;-63
2022/01/07 00:49:46;;;;;;;21.08;8.80;;;2.60;99.90;;;;;;5156344;27;20061;-63
2022/01/07 00:52:11;;;;;;;18.10;7.55;;;2.60;99.90;;;;;;5156553;27;20027;-66
2022/01/07 00:54:37;;;;;;;22.02;8.30;;;2.70;99.90;;;;;;5156201;27;20034;-68
2022/01/07 00:57:03;;;;;;;16.52;6.97;;;2.70;99.90;;;;;;5154951;27;20029;-64
2022/01/07 00:59:28;;;;;;;16.42;8.43;;;2.90;99.90;;;;;;5156218;27;20026;-64
2022/01/07 01:01:54;;;;;;;21.10;8.82;;;2.90;99.90;;;;;;5154933;27;20376;-64
2022/01/07 01:04:20;;;;;;;18.75;7.00;;;3.00;99.90;;;;;;5156080;27;20030;-63
2022/01/07 01:06:46;;;;;;;19.90;7.95;;;3.00;99.90;;;;;;5156324;27;20022;-67
2022/01/07 01:09:12;;;;;;;22.50;8.10;;;2.90;99.90;;;;;;5155837;27;20054;-64
2022/01/07 01:11:38;;;;;;;15.18;8.45;;;2.80;99.90;;;;;;5159382;27;20462;-64
2022/01/07 01:14:05;;;;;;;14.73;8.18;;;2.80;99.90;;;;;;5157391;27;20125;-63
2022/01/07 01:16:31;;;;;;;16.17;7.60;;;2.80;99.90;;;;;;5157878;27;20027;-63
2022/01/07 01:18:57;;;;;;;11.50;7.13;;;2.90;99.90;;;;;;5157421;27;20022;-64
2022/01/07 01:21:22;;;;;;;21.50;10.63;;;2.90;99.90;;;;;;5156171;27;20050;-64
2022/01/07 01:23:50;;;;;;;17.40;7.50;;;2.90;99.90;;;;;;5154324;27;20092;-63
2022/01/07 01:26:18;;;;;;;18.13;8.60;;;3.00;99.90;;;;;;5155836;27;20172;-65
2022/01/07 01:28:45;;;;;;;18.85;7.55;;;2.90;99.90;;;;;;5154573;27;20090;-64
2022/01/07 01:31:13;;;;;;;18.35;8.10;;;2.90;99.90;;;;;;5157892;27;20085;-65
2022/01/07 01:33:39;;;;;;;17.20;7.68;;;2.80;99.90;;;;;;5158730;27;20046;-66
2022/01/07 01:36:05;;;;;;;14.80;8.90;;;2.90;99.90;;;;;;5156567;27;20448;-64
2022/01/07 01:38:31;;;;;;;20.70;7.50;;;2.80;99.90;;;;;;5155099;27;20027;-64
2022/01/07 01:40:57;;;;;;;18.00;9.05;;;2.90;99.90;;;;;;5154050;27;20022;-63
2022/01/07 01:43:22;;;;;;;16.70;7.70;;;2.90;99.90;;;;;;5154266;27;20122;-63
2022/01/07 01:45:48;;;;;;;21.50;8.65;;;2.80;99.90;;;;;;5153980;27;20034;-66
2022/01/07 01:48:14;;;;;;;19.52;8.73;;;2.80;99.90;;;;;;5155825;27;20027;-65
2022/01/07 01:50:40;;;;;;;23.48;9.57;;;2.80;99.90;;;;;;5155309;27;20027;-64
2022/01/07 01:53:05;;;;;;;20.05;8.55;;;2.60;99.90;;;;;;5154921;27;20034;-64
2022/01/07 01:55:31;;;;;;;18.80;9.40;;;2.60;99.90;;;;;;5154301;27;20486;-64
2022/01/07 01:57:58;;;;;;;23.20;8.50;;;2.70;99.90;;;;;;5153822;27;20040;-65
2022/01/07 02:00:25;;;;;;;16.30;8.23;;;2.70;99.90;;;;;;5155478;27;20034;-64
2022/01/07 02:02:51;;;;;;;20.75;8.52;;;2.70;99.90;;;;;;5154919;27;20437;-63
2022/01/07 02:05:18;;;;;;;23.65;9.55;;;2.70;99.90;;;;;;5154325;27;20110;-64
2022/01/07 02:07:45;;;;;;;16.38;7.57;;;2.70;99.90;;;;;;5154989;27;20034;-68
2022/01/07 02:10:13;;;;;;;19.98;8.57;;;2.80;99.90;;;;;;5154561;27;20018;-64
2022/01/07 02:12:40;;;;;;;18.98;8.75;;;2.60;99.90;;;;;;5153955;27;20023;-64
2022/01/07 02:15:08;;;;;;;22.20;10.23;;;2.40;99.90;;;;;;5155532;27;20054;-66
2022/01/07 02:17:34;;;;;;;15.93;8.98;;;2.50;99.90;;;;;;5156622;27;20023;-69
2022/01/07 02:19:59;;;;;;;18.42;8.85;;;2.40;99.90;;;;;;5155990;27;20046;-64
2022/01/07 02:22:25;;;;;;;19.35;9.43;;;2.30;99.90;;;;;;5155505;27;20125;-65
2022/01/07 02:24:53;;;;;;;23.25;7.95;;;2.30;99.90;;;;;;5153234;27;20031;-65
2022/01/07 02:27:19;;;;;;;17.20;8.82;;;2.40;99.90;;;;;;5155063;27;20034;-64
2022/01/07 02:29:48;;;;;;;18.02;9.48;;;2.40;99.90;;;;;;5155084;27;20026;-63
2022/01/07 02:32:14;;;;;;;21.05;10.20;;;2.30;99.90;;;;;;5153985;27;20019;-65
2022/01/07 02:34:41;;;;;;;17.00;9.00;;;2.40;99.90;;;;;;5153133;27;20033;-63
2022/01/07 02:37:07;;;;;;;21.55;9.38;;;2.50;99.90;;;;;;5152528;27;20030;-63
2022/01/07 02:39:32;;;;;;;21.52;8.55;;;2.40;99.90;;;;;;5153607;27;20026;-64
2022/01/07 02:41:58;;;;;;;14.27;8.57;;;2.40;99.90;;;;;;5154244;27;20062;-63
2022/01/07 02:44:24;;;;;;;26.85;9.90;;;2.40;99.90;;;;;;5155219;27;20030;-66
2022/01/07 02:46:50;;;;;;;20.08;8.75;;;2.40;99.90;;;;;;5153648;27;20111;-63
2022/01/07 02:49:18;;;;;;;14.38;8.38;;;2.40;99.90;;;;;;5155200;27;20025;-64
2022/01/07 02:51:45;;;;;;;24.60;9.25;;;2.40;99.90;;;;;;5154793;27;20023;-63
2022/01/07 02:54:11;;;;;;;26.63;10.32;;;2.40;99.90;;;;;;5154089;27;20245;-63
2022/01/07 02:56:38;;;;;;;21.85;10.02;;;2.40;99.90;;;;;;5145640;27;20023;-58
2022/01/07 02:59:05;;;;;;;17.40;9.45;;;2.40;99.90;;;;;;5120368;27;20031;-64
2022/01/07 03:01:31;;;;;;;18.77;9.55;;;2.20;99.90;;;;;;5113342;28;20023;-65
2022/01/07 03:03:57;;;;;;;19.80;9.65;;;2.20;99.90;;;;;;5112485;28;20019;-64
2022/01/07 03:06:22;;;;;;;23.98;11.73;;;2.20;99.90;;;;;;5113333;28;20059;-65
2022/01/07 03:08:50;;;;;;;18.70;9.98;;;2.30;99.90;;;;;;5112403;28;20058;-65
2022/01/07 03:11:16;;;;;;;24.48;10.50;;;2.00;99.90;;;;;;5114431;28;20533;-65
2022/01/07 03:13:42;;;;;;;19.20;9.75;;;2.20;99.90;;;;;;5115795;28;20059;-65
2022/01/07 03:16:07;;;;;;;18.15;9.93;;;2.20;99.90;;;;;;5114120;28;20092;-64
2022/01/07 03:18:33;;;;;;;22.17;10.00;;;2.20;99.90;;;;;;5113426;28;20108;-64
2022/01/07 03:21:00;;;;;;;16.02;8.52;;;2.30;99.90;;;;;;5113878;28;20043;-64
2022/01/07 03:23:26;;;;;;;23.67;10.30;;;2.40;99.90;;;;;;5118252;28;20035;-64
2022/01/07 03:25:53;;;;;;;20.90;10.30;;;2.40;99.90;;;;;;5117467;28;20040;-64
2022/01/07 03:28:19;;;;;;;18.95;8.98;;;2.40;99.90;;;;;;5116773;28;20389;-64
2022/01/07 03:30:46;;;;;;;18.27;9.77;;;2.30;99.90;;;;;;5116913;28;20380;-64
2022/01/07 03:33:13;;;;;;;19.08;9.52;;;2.30;99.90;;;;;;5116223;28;20039;-64
2022/01/07 03:35:39;;;;;;;18.67;11.00;;;2.30;99.90;;;;;;5115615;28;20028;-64
2022/01/07 03:38:05;;;;;;;19.70;10.35;;;2.30;99.90;;;;;;5116374;28;20372;-65
2022/01/07 03:40:31;;;;;;;19.73;8.85;;;2.30;99.90;;;;;;5116860;28;20030;-66
2022/01/07 03:42:56;;;;;;;23.17;10.02;;;2.30;99.90;;;;;;5118555;28;20102;-64
2022/01/07 03:45:22;;;;;;;19.58;8.57;;;2.30;99.90;;;;;;5118573;28;20034;-68
2022/01/07 03:47:49;;;;;;;20.20;9.70;;;2.30;99.90;;;;;;5118741;28;20484;-65
2022/01/07 03:50:16;;;;;;;19.02;9.13;;;2.40;99.90;;;;;;5118068;28;20034;-64
2022/01/07 03:52:42;;;;;;;24.02;9.15;;;2.40;99.90;;;;;;5117934;28;20047;-65
2022/01/07 03:55:12;;;;;;;16.65;9.57;;;2.30;99.90;;;;;;5118455;28;20329;-64
2022/01/07 03:57:38;;;;;;;16.83;9.23;;;2.30;99.90;;;;;;5117364;28;20376;-63
2022/01/07 04:00:13;;;;;;;21.10;8.85;;;2.30;99.90;;;;;;5116866;28;20034;-64
2022/01/07 04:02:39;;;;;;;20.83;9.18;;;2.30;99.90;;;;;;5117098;28;20024;-65
2022/01/07 04:05:06;;;;;;;16.52;9.43;;;2.30;99.90;;;;;;5117022;28;20034;-66
2022/01/07 04:07:32;;;;;;;20.50;10.82;;;2.30;99.90;;;;;;5118542;28;20496;-64
2022/01/07 04:09:58;;;;;;;21.15;10.65;;;2.30;99.90;;;;;;5118629;28;20031;-64
2022/01/07 04:12:24;;;;;;;20.13;9.73;;;2.20;99.90;;;;;;5118852;28;20034;-63
2022/01/07 04:14:59;;;;;;;18.77;8.80;;;2.30;99.90;;;;;;5116645;28;20023;-64
2022/01/07 04:17:25;;;;;;;17.80;9.63;;;2.20;99.90;;;;;;5116492;28;20024;-64
2022/01/07 04:19:51;;;;;;;19.50;9.60;;;2.20;99.90;;;;;;5115389;28;20032;-63
2022/01/07 04:22:16;;;;;;;23.85;8.90;;;2.30;99.90;;;;;;5115956;28;20031;-65
2022/01/07 04:24:42;;;;;;;17.55;9.68;;;2.20;99.90;;;;;;5115975;28;20024;-64
2022/01/07 04:27:07;;;;;;;16.42;8.55;;;2.30;99.90;;;;;;5115574;28;20103;-67
2022/01/07 04:29:33;;;;;;;20.63;10.57;;;2.30;99.90;;;;;;5115910;28;20385;-64
2022/01/07 04:31:59;;;;;;;19.10;10.85;;;2.40;99.90;;;;;;5115117;28;20028;-63
2022/01/07 04:34:24;;;;;;;19.98;9.15;;;2.30;99.90;;;;;;5116315;28;20098;-63
2022/01/07 04:36:50;;;;;;;21.20;9.57;;;2.10;99.90;;;;;;5116281;28;20024;-63
2022/01/07 04:39:16;;;;;;;15.57;8.70;;;2.20;99.90;;;;;;5115918;28;20024;-69
2022/01/07 04:41:41;;;;;;;19.45;9.48;;;2.30;99.90;;;;;;5116453;28;20023;-63
2022/01/07 04:44:07;;;;;;;22.50;10.45;;;2.30;99.90;;;;;;5115192;28;20027;-63
2022/01/07 04:46:32;;;;;;;19.40;10.45;;;2.20;99.90;;;;;;5115571;28;20061;-63
2022/01/07 04:48:58;;;;;;;19.92;8.98;;;2.10;99.90;;;;;;5115263;28;20072;-71
2022/01/07 04:51:24;;;;;;;19.88;9.63;;;2.10;99.90;;;;;;5113910;28;20127;-64
2022/01/07 04:53:49;;;;;;;18.73;9.60;;;2.10;99.90;;;;;;5115490;28;20034;-63
2022/01/07 04:56:15;;;;;;;17.20;8.82;;;2.00;99.90;;;;;;5114971;28;20365;-64
2022/01/07 04:58:41;;;;;;;17.73;9.40;;;2.10;99.90;;;;;;5116425;28;20388;-66
2022/01/07 05:01:06;;;;;;;20.95;9.55;;;2.20;99.90;;;;;;5114757;28;20481;-64
2022/01/07 05:03:32;;;;;;;21.83;9.60;;;2.20;99.90;;;;;;5115655;28;20049;-64
2022/01/07 05:08:43;;;;;;;21.15;8.95;;;2.20;99.90;;;;;;5093800;28;20404;-64
2022/01/07 05:11:09;;;;;;;19.80;10.32;;;2.30;99.90;;;;;;5116242;28;20110;-65
2022/01/07 05:13:34;;;;;;;19.98;10.55;;;2.20;99.90;;;;;;5117671;28;20055;-63
2022/01/07 05:16:00;;;;;;;19.17;8.65;;;2.30;99.90;;;;;;5116961;28;20019;-67
2022/01/07 05:18:26;;;;;;;30.48;10.82;;;2.30;99.90;;;;;;5115107;28;20020;-63
2022/01/07 05:20:51;;;;;;;22.75;9.68;;;2.20;99.90;;;;;;5115241;28;20074;-63
2022/01/07 05:23:18;;;;;;;18.73;9.10;;;2.30;99.90;;;;;;5113475;28;20058;-64
2022/01/07 05:25:44;;;;;;;14.07;8.98;;;2.30;99.90;;;;;;5114007;28;20118;-65
2022/01/07 05:28:10;;;;;;;21.15;9.32;;;2.30;99.90;;;;;;5115575;28;20047;-64
2022/01/07 05:30:35;;;;;;;17.23;9.82;;;2.40;99.90;;;;;;5117406;28;20448;-64
2022/01/07 05:33:01;;;;;;;16.80;9.02;;;2.40;99.90;;;;;;5115070;28;20031;-68
2022/01/07 05:35:28;;;;;;;23.30;10.70;;;2.40;99.90;;;;;;5114967;28;20035;-63
2022/01/07 05:37:54;;;;;;;16.63;9.90;;;2.50;99.90;;;;;;5113571;28;20426;-68
2022/01/07 05:40:19;;;;;;;17.23;9.38;;;2.50;99.90;;;;;;5114137;28;20023;-63
2022/01/07 05:42:45;;;;;;;21.67;8.57;;;2.40;99.90;;;;;;5113835;28;20055;-63
2022/01/07 05:45:11;;;;;;;17.58;9.93;;;2.50;99.90;;;;;;5113899;28;20032;-62
2022/01/07 05:47:37;;;;;;;20.25;9.15;;;2.50;99.90;;;;;;5113206;28;20145;-64
2022/01/07 05:50:03;;;;;;;13.18;8.75;;;2.50;99.90;;;;;;5112412;28;20102;-65
2022/01/07 05:52:29;;;;;;;18.02;8.38;;;2.60;99.90;;;;;;5114767;28;20032;-63
2022/01/07 05:54:54;;;;;;;24.85;10.93;;;2.70;99.90;;;;;;5113216;28;20027;-63
2022/01/07 05:57:20;;;;;;;17.10;8.50;;;2.70;99.90;;;;;;5113855;28;20103;-64
2022/01/07 05:59:46;;;;;;;21.08;8.00;;;2.70;99.90;;;;;;5114518;28;20472;-64
2022/01/07 06:02:12;;;;;;;14.10;8.27;;;2.70;99.90;;;;;;5114888;28;20338;-66
2022/01/07 06:04:37;;;;;;;21.15;9.93;;;2.70;99.90;;;;;;5114011;28;20024;-64
2022/01/07 06:07:03;;;;;;;22.15;9.73;;;2.80;99.90;;;;;;5113443;28;20031;-70
2022/01/07 06:09:29;;;;;;;14.63;8.07;;;2.70;99.90;;;;;;5112688;28;20108;-64
2022/01/07 06:11:54;;;;;;;21.55;9.40;;;2.60;99.90;;;;;;5114137;28;20027;-63
2022/01/07 06:14:20;;;;;;;18.05;7.93;;;2.50;99.90;;;;;;5113350;28;20446;-64
2022/01/07 06:16:46;;;;;;;13.93;8.25;;;2.60;99.90;;;;;;5114461;28;20027;-64
2022/01/07 06:19:11;;;;;;;19.45;8.43;;;2.60;99.90;;;;;;5112155;28;20038;-63
2022/01/07 06:21:37;;;;;;;19.67;8.15;;;2.60;99.90;;;;;;5114064;28;20062;-64
2022/01/07 06:24:03;;;;;;;16.38;7.78;;;2.60;99.90;;;;;;5113545;28;20049;-64
2022/01/07 06:26:29;;;;;;;15.30;8.27;;;2.60;99.90;;;;;;5112852;28;20031;-64
2022/01/07 06:28:54;;;;;;;15.02;8.77;;;2.60;99.90;;;;;;5113504;28;20024;-65
2022/01/07 06:31:20;;;;;;;19.02;7.80;;;2.60;99.90;;;;;;5112996;28;20099;-63
2022/01/07 06:33:46;;;;;;;17.23;8.63;;;2.40;99.90;;;;;;5113642;28;20051;-63
2022/01/07 06:36:11;;;;;;;16.88;9.75;;;2.50;99.90;;;;;;5113803;28;20062;-65
2022/01/07 06:38:38;;;;;;;14.40;8.60;;;2.40;99.90;;;;;;5112283;28;20035;-68
2022/01/07 06:41:04;;;;;;;23.88;8.77;;;2.40;99.90;;;;;;5113064;28;20392;-65
2022/01/07 06:43:30;;;;;;;15.45;8.52;;;2.40;99.90;;;;;;5115006;28;20430;-65
2022/01/07 06:45:55;;;;;;;24.63;9.52;;;2.40;99.90;;;;;;5113923;28;20102;-64
2022/01/07 06:48:21;;;;;;;15.77;8.52;;;2.50;99.90;;;;;;5111814;28;20031;-66
2022/01/07 06:50:47;;;;;;;19.48;9.18;;;2.40;99.90;;;;;;5113527;28;20040;-65
2022/01/07 06:53:13;;;;;;;22.00;9.35;;;2.50;99.90;;;;;;5111455;28;20036;-64
2022/01/07 06:55:39;;;;;;;18.85;8.80;;;2.40;99.90;;;;;;5112326;27;20481;-64
2022/01/07 06:58:04;;;;;;;17.42;8.80;;;2.30;99.90;;;;;;5112070;28;20024;-64
2022/01/07 07:00:30;;;;;;;15.57;8.98;;;2.30;99.90;;;;;;5111463;28;20049;-64
2022/01/07 07:02:56;;;;;;;20.75;9.68;;;2.20;99.90;;;;;;5095246;28;20024;-63
2022/01/07 07:05:24;;;;;;;19.10;10.38;;;2.30;99.90;;;;;;5112641;28;20040;-63
2022/01/07 07:07:50;;;;;;;17.05;8.77;;;2.30;99.90;;;;;;5115530;28;20023;-66
2022/01/07 07:10:16;;;;;;;18.02;9.75;;;2.40;99.90;;;;;;5113936;28;20024;-65
2022/01/07 07:12:41;;;;;;;17.00;9.27;;;2.50;99.90;;;;;;5113531;28;20028;-63
2022/01/07 07:15:07;;;;;;;12.05;8.70;;;2.50;99.90;;;;;;5111666;28;20028;-70
2022/01/07 07:17:33;;;;;;;16.63;8.27;;;2.40;99.90;;;;;;5112176;28;20024;-63
2022/01/07 07:20:00;;;;;;;18.77;8.27;;;2.50;99.90;;;;;;5113151;28;20050;-65
2022/01/07 07:22:26;;;;;;;19.25;9.00;;;2.50;99.90;;;;;;5113137;28;20027;-66
2022/01/07 07:24:52;;;;;;;34.20;11.02;;;2.40;99.90;;;;;;5112958;28;20035;-64
2022/01/07 07:27:17;;;;;;;15.05;8.95;;;2.30;99.90;;;;;;5113052;28;20035;-63
2022/01/07 07:29:43;;;;;;;18.77;10.15;;;2.20;99.90;;;;;;5112945;28;20105;-66
2022/01/07 07:32:10;;;;;;;14.15;8.65;;;2.20;99.90;;;;;;5113413;28;20062;-65
2022/01/07 07:37:07;;;;;;;19.52;9.32;;;2.10;99.90;;;;;;5113070;28;20389;-64
2022/01/07 07:39:34;;;;;;;18.77;9.30;;;2.00;99.90;;;;;;5111182;28;20373;-65
2022/01/07 07:41:59;;;;;;;18.83;10.15;;;2.10;99.90;;;;;;5111799;28;20043;-64
2022/01/07 07:44:25;;;;;;;20.98;10.52;;;2.10;99.90;;;;;;5112020;28;20046;-64
2022/01/07 07:46:51;;;;;;;25.55;12.27;;;1.90;99.90;;;;;;5113223;28;20034;-64
2022/01/07 07:49:18;;;;;;;17.92;9.13;;;1.80;99.90;;;;;;5111228;28;20111;-65
2022/01/07 07:51:46;;;;;;;20.02;10.50;;;1.80;99.90;;;;;;5113811;28;20031;-65
2022/01/07 07:54:12;;;;;;;26.90;11.38;;;1.70;99.90;;;;;;5113251;28;20043;-64
2022/01/07 07:56:38;;;;;;;20.60;11.00;;;1.80;99.90;;;;;;5111824;28;20020;-65
2022/01/07 07:59:04;;;;;;;20.33;11.75;;;1.80;99.90;;;;;;5112706;28;20469;-64
2022/01/07 08:01:30;;;;;;;18.73;9.93;;;2.00;99.90;;;;;;5111418;28;20036;-65
2022/01/07 08:03:56;;;;;;;20.55;11.15;;;1.90;99.90;;;;;;5112555;28;20020;-66
2022/01/07 08:06:21;;;;;;;22.58;10.75;;;1.80;99.90;;;;;;5113594;28;20047;-65
2022/01/07 08:08:47;;;;;;;18.33;10.98;;;1.80;99.90;;;;;;5114969;28;20020;-62
2022/01/07 08:11:14;;;;;;;20.92;12.65;;;1.70;99.90;;;;;;5116266;28;20051;-65
2022/01/07 08:16:25;;;;;;;17.95;10.77;;;1.80;99.90;;;;;;5117624;28;20069;-65
2022/01/07 08:18:53;;;;;;;18.08;11.40;;;1.70;99.90;;;;;;5118428;28;20085;-68
2022/01/07 08:21:21;;;;;;;24.08;11.38;;;1.60;99.90;;;;;;5114985;28;20538;-63
2022/01/07 08:23:47;;;;;;;23.88;11.77;;;1.50;99.90;;;;;;5116570;28;20024;-64
2022/01/07 08:26:16;;;;;;;21.77;12.57;;;1.60;99.90;;;;;;5115356;28;20033;-65
2022/01/07 08:28:49;;;;;;;21.92;11.52;;;1.70;99.90;;;;;;5115817;28;20164;-65
2022/01/07 08:36:29;;;;;;;17.55;10.93;;;1.80;99.90;;;;;;5115254;28;20141;-63
2022/01/07 08:38:55;;;;;;;22.10;10.52;;;1.90;99.90;;;;;;5115684;28;20388;-65
2022/01/07 08:41:24;;;;;;;21.00;12.25;;;1.80;99.90;;;;;;5115725;28;20032;-65
2022/01/07 08:43:49;;;;;;;22.83;11.00;;;1.80;99.90;;;;;;5113966;28;20028;-63
2022/01/07 08:46:16;;;;;;;24.08;12.50;;;1.80;99.90;;;;;;5114748;28;20392;-64
2022/01/07 08:48:42;;;;;;;21.95;11.27;;;1.80;99.90;;;;;;5115462;28;20032;-64
2022/01/07 08:51:08;;;;;;;18.23;11.57;;;1.90;99.90;;;;;;5114373;28;20397;-65
2022/01/07 08:53:34;;;;;;;19.38;10.30;;;1.90;99.90;;;;;;5114846;28;20038;-65
2022/01/07 08:56:00;;;;;;;22.95;12.88;;;1.90;99.90;;;;;;5118696;27;20035;-64
2022/01/07 08:58:26;;;;;;;25.77;11.18;;;1.90;99.90;;;;;;5125770;27;20030;-64
2022/01/07 09:00:52;;;;;;;17.17;10.82;;;2.00;99.90;;;;;;5124748;27;20032;-65
2022/01/07 09:03:18;;;;;;;20.70;12.32;;;2.00;99.90;;;;;;5115887;27;20117;-70
2022/01/07 09:05:44;;;;;;;23.73;10.73;;;1.90;99.90;;;;;;5119575;27;20035;-62
2022/01/07 09:08:11;;;;;;;21.25;13.20;;;2.10;99.90;;;;;;5117256;27;20084;-64
2022/01/07 09:10:38;;;;;;;20.55;11.75;;;3.90;99.90;;;;;;5115125;27;20053;-65
2022/01/07 09:13:04;;;;;;;16.17;10.30;;;2.90;99.90;;;;;;5137449;27;20131;-65
2022/01/07 09:15:30;;;;;;;23.80;11.88;;;2.30;99.90;;;;;;5135461;27;20027;-65
2022/01/07 09:17:56;;;;;;;18.83;11.45;;;2.10;99.90;;;;;;5136211;27;20020;-64
2022/01/07 09:20:22;;;;;;;21.45;12.20;;;2.00;99.90;;;;;;5128848;27;20118;-64
2022/01/07 09:22:49;;;;;;;21.73;11.77;;;2.00;99.90;;;;;;5116587;28;20027;-65
2022/01/07 09:25:15;;;;;;;15.50;10.95;;;2.00;99.90;;;;;;5115585;28;20057;-70
2022/01/07 09:27:42;;;;;;;26.15;12.57;;;2.00;99.90;;;;;;5115204;28;20193;-65
2022/01/07 09:30:11;;;;;;;15.32;10.27;;;2.00;99.90;;;;;;5114937;28;20028;-66
2022/01/07 09:32:38;;;;;;;23.35;11.50;;;1.90;99.90;;;;;;5115228;27;20062;-65
2022/01/07 09:35:05;;;;;;;19.73;12.25;;;2.00;99.90;;;;;;5121382;27;20050;-64
2022/01/07 09:37:30;;;;;;;18.85;10.20;;;2.00;99.90;;;;;;5135224;27;20054;-65
2022/01/07 09:39:56;;;;;;;16.33;11.00;;;2.00;99.90;;;;;;5134301;27;20027;-65
2022/01/07 09:42:22;;;;;;;18.65;11.40;;;2.10;99.90;;;;;;5136372;27;20027;-64
2022/01/07 09:44:48;;;;;;;20.58;11.55;;;2.00;99.90;;;;;;5135403;27;20464;-65
2022/01/07 09:47:14;;;;;;;14.90;9.73;;;2.10;99.90;;;;;;5135596;27;20164;-65
2022/01/07 09:49:41;;;;;;;16.70;10.82;;;2.00;99.90;;;;;;5132841;27;20428;-64
2022/01/07 09:52:08;;;;;;;18.30;10.73;;;2.30;99.90;;;;;;5135132;27;20023;-65
2022/01/07 09:54:36;;;;;;;16.35;10.43;;;2.30;99.90;;;;;;5134427;27;20076;-64
2022/01/07 09:57:06;;;;;;;16.60;9.00;;;2.10;99.90;;;;;;5135615;27;20042;-64
2022/01/07 09:59:32;;;;;;;15.30;10.48;;;2.20;99.90;;;;;;5134730;27;20061;-65
2022/01/07 10:01:59;;;;;;;16.45;10.07;;;2.00;99.90;;;;;;5135739;27;20450;-66
2022/01/07 10:04:33;;;;;;;17.83;9.77;;;2.00;99.90;;;;;;5118255;27;20111;-64
2022/01/07 10:07:08;;;;;;;17.75;9.60;;;2.10;99.90;;;;;;5121599;27;20024;-65
2022/01/07 10:09:34;;;;;;;14.88;9.43;;;2.20;99.90;;;;;;5126825;27;20103;-65
2022/01/07 10:12:04;;;;;;;15.68;9.48;;;2.10;99.90;;;;;;5116222;27;20194;-64
2022/01/07 10:14:32;;;;;;;15.30;9.65;;;2.00;99.90;;;;;;5129583;27;20104;-65
2022/01/07 10:16:59;;;;;;;16.05;10.13;;;2.10;99.90;;;;;;5126720;27;20019;-65
2022/01/07 10:19:34;;;;;;;17.13;9.77;;;2.10;99.90;;;;;;5122892;27;20091;-60
2022/01/07 10:22:08;;;;;;;16.73;9.80;;;2.10;99.90;;;;;;5126087;27;20436;-67
2022/01/07 10:24:52;;;;;;;14.90;10.70;;;2.00;99.90;;;;;;5123937;27;20058;-65
2022/01/07 10:27:17;;;;;;;18.38;10.20;;;2.10;99.90;;;;;;5123331;27;20414;-68
2022/01/07 10:29:44;;;;;;;15.23;10.00;;;2.00;99.90;;;;;;5118341;27;20528;-66
2022/01/07 10:32:30;;;;;;;20.77;11.40;;;2.00;99.90;;;;;;5122128;27;20046;-66
2022/01/07 10:35:13;;;;;;;18.40;10.52;;;2.10;99.90;;;;;;5119048;27;20059;-66
2022/01/07 10:38:00;;;;;;;16.35;11.05;;;2.10;99.90;;;;;;5119397;27;20047;-64
2022/01/07 10:40:30;;;;;;;20.88;12.25;;;2.00;99.90;;;;;;5114719;27;20031;-67
2022/01/07 10:43:19;;;;;;;18.27;12.32;;;2.10;99.90;;;;;;5124019;27;20058;-66
2022/01/07 10:45:53;;;;;;;20.27;12.05;;;2.10;99.90;;;;;;5115794;27;20051;-65
2022/01/07 10:48:21;;;;;;;23.27;11.73;;;1.90;99.90;;;;;;5123357;27;20034;-64
2022/01/07 10:50:49;;;;;;;22.23;12.05;;;2.10;99.90;;;;;;5132259;27;20058;-65
2022/01/07 10:53:34;;;;;;;22.08;12.10;;;2.20;99.90;;;;;;5126481;27;20105;-66
2022/01/07 10:56:12;;;;;;;19.60;12.65;;;2.20;99.90;;;;;;5133493;27;20040;-74
2022/01/07 10:58:46;;;;;;;20.02;12.30;;;2.30;99.90;;;;;;5135150;27;20073;-66
2022/01/07 11:01:32;;;;;;;19.67;10.98;;;2.40;99.90;;;;;;5134222;27;20029;-66
2022/01/07 11:04:00;;;;;;;18.75;11.90;;;2.40;99.90;;;;;;5115853;27;20529;-68
2022/01/07 11:06:28;;;;;;;18.92;10.98;;;2.30;99.90;;;;;;5112838;28;20520;-66
2022/01/07 11:08:55;;;;;;;18.35;10.73;;;2.20;99.90;;;;;;5112516;28;20062;-67
2022/01/07 11:11:23;;;;;;;18.80;11.05;;;2.20;99.90;;;;;;5112654;28;20019;-67
2022/01/07 11:13:49;;;;;;;19.00;10.65;;;2.30;99.90;;;;;;5114444;28;20082;-64
2022/01/07 11:16:16;;;;;;;14.85;10.07;;;2.40;99.90;;;;;;5120749;27;20034;-68
2022/01/07 11:18:44;;;;;;;23.63;10.95;;;2.30;99.90;;;;;;5111704;28;20441;-66
2022/01/07 11:21:10;;;;;;;19.30;10.98;;;2.30;99.90;;;;;;5113269;28;20075;-68
2022/01/07 11:23:41;;;;;;;22.38;11.25;;;2.30;99.90;;;;;;5113396;28;20053;-67
2022/01/07 11:26:11;;;;;;;20.58;11.07;;;2.40;99.90;;;;;;5113621;28;20043;-66
2022/01/07 11:28:57;;;;;;;23.20;11.63;;;2.40;99.90;;;;;;5115044;28;20035;-68
2022/01/07 11:31:23;;;;;;;15.70;10.00;;;2.40;99.90;;;;;;5134236;27;20027;-65
2022/01/07 11:34:22;;;;;;;18.17;9.32;;;2.50;99.90;;;;;;5131887;28;20027;-74
2022/01/07 11:36:48;;;;;;;17.48;8.85;;;2.50;99.90;;;;;;5134687;27;20019;-64
2022/01/07 11:39:14;;;;;;;15.85;9.77;;;2.40;99.90;;;;;;5134074;28;20027;-66
2022/01/07 11:41:56;;;;;;;17.98;9.10;;;2.40;99.90;;;;;;5135511;27;20035;-67
2022/01/07 11:44:27;;;;;;;16.05;9.23;;;2.40;99.90;;;;;;5138272;27;20053;-66
2022/01/07 11:47:12;;;;;;;19.25;8.38;;;2.50;99.90;;;;;;5137352;27;20041;-65
2022/01/07 11:49:39;;;;;;;15.90;8.77;;;2.50;99.90;;;;;;5138351;27;20145;-66
2022/01/07 11:52:31;;;;;;;20.58;8.73;;;2.60;99.90;;;;;;5138929;27;20468;-65
2022/01/07 11:55:18;;;;;;;20.23;9.85;;;2.60;99.90;;;;;;5138511;27;20172;-64
2022/01/07 11:57:51;;;;;;;12.57;8.77;;;2.60;99.90;;;;;;5138320;27;20056;-66
2022/01/07 12:00:48;;;;;;;12.82;8.75;;;2.60;99.90;;;;;;5137519;27;20023;-66
2022/01/07 12:03:31;;;;;;;21.05;9.27;;;2.70;99.90;;;;;;5137900;27;20072;-66
2022/01/07 12:05:57;;;;;;;12.73;7.55;;;2.60;99.90;;;;;;5138367;27;20073;-69
2022/01/07 12:08:40;;;;;;;13.20;8.23;;;2.60;99.90;;;;;;5137997;27;20031;-66
2022/01/07 12:11:10;;;;;;;15.65;8.43;;;2.70;99.90;;;;;;5136708;27;20030;-65
2022/01/07 12:13:38;;;;;;;19.98;8.82;;;2.80;99.90;;;;;;5137193;27;20023;-66
2022/01/07 12:16:05;;;;;;;16.40;9.88;;;2.70;99.90;;;;;;5137606;27;20027;-66
2022/01/07 12:18:35;;;;;;;13.30;7.40;;;2.70;99.90;;;;;;5137231;27;20106;-66
2022/01/07 12:21:01;;;;;;;13.27;7.97;;;2.80;99.90;;;;;;5135365;27;20058;-68
2022/01/07 12:23:27;;;;;;;13.75;8.52;;;2.80;99.90;;;;;;5136107;27;20028;-68
2022/01/07 12:25:54;;;;;;;21.65;8.85;;;2.80;99.90;;;;;;5135506;27;20035;-65
2022/01/07 12:28:20;;;;;;;15.00;7.72;;;2.60;99.90;;;;;;5135563;27;20085;-65
2022/01/07 12:30:49;;;;;;;19.90;8.43;;;2.60;99.90;;;;;;5135047;27;20027;-66
2022/01/07 12:33:15;;;;;;;20.70;9.00;;;2.60;99.90;;;;;;5135719;27;20028;-66
2022/01/07 12:35:42;;;;;;;17.77;9.13;;;2.60;99.90;;;;;;5134867;27;20114;-65
2022/01/07 12:38:17;;;;;;;13.35;8.15;;;2.60;99.90;;;;;;5136766;27;20023;-67
2022/01/07 12:40:51;;;;;;;13.02;8.45;;;2.60;99.90;;;;;;5119561;27;20197;-66
2022/01/07 12:43:20;;;;;;;12.40;8.38;;;2.50;99.90;;;;;;5136837;27;20031;-66
2022/01/07 12:45:59;;;;;;;12.30;6.90;;;2.50;99.90;;;;;;5136083;27;20026;-64
2022/01/07 12:48:36;;;;;;;14.10;8.27;;;2.60;99.90;;;;;;5134667;27;20379;-67
2022/01/07 12:51:05;;;;;;;14.95;7.68;;;2.70;99.90;;;;;;5135252;27;20047;-64
2022/01/07 12:53:32;;;;;;;13.55;8.43;;;2.70;99.90;;;;;;5136058;27;20552;-65
2022/01/07 12:56:36;;;;;;;13.27;7.22;;;2.80;99.90;;;;;;5135583;27;20387;-65
2022/01/07 12:59:14;;;;;;;12.63;6.95;;;2.80;99.90;;;;;;5135734;27;20027;-64